ULOO 181100Z 01003MPS 310V060 9999 BKN035 08/M00 Q1010 R01/090061 NOSIG RMK QFE753
QNH:(hPa/inHg/mmHg)1010 / 29.83 / 758
QFE:(hPa/inHg/mmHg)1008 / 29.77 / 756
Temperature8
Dew Point-0
Visibility> 10000
Weather
Cloud CoverBKN (3500);
Transition Height1000 m./3400 ft.
Transition LevelFL50
SQUAWK